Time;durP1;ratioP1;P1;durP2;ratioP2;P2;SDS_P1;SDS_P2;PMS_P1;PMS_P2;Temp;Humidity;BMP_temperature;BMP_pressure;BME280_temperature;BME280_humidity;BME280_pressure;Samples;Min_cycle;Max_cycle;Signal;HPM_P1;HPM_P2
2023/05/30 00:00:03;;;;;;;25.05;4.00;;;;;;;10.04;76.57;102563.41;5028057;28;20025;-76
2023/05/30 00:02:29;;;;;;;14.48;3.80;;;;;;;9.99;77.17;102556.63;5028286;28;20508;-76
2023/05/30 00:04:55;;;;;;;27.20;4.68;;;;;;;9.94;77.55;102548.94;5010486;28;20026;-75
2023/05/30 00:07:20;;;;;;;18.83;4.70;;;;;;;9.93;77.90;102552.47;5023172;28;20033;-75
2023/05/30 00:09:46;;;;;;;17.40;3.65;;;;;;;9.86;78.55;102561.56;5010894;28;20108;-75
2023/05/30 00:12:13;;;;;;;19.98;3.95;;;;;;;9.86;78.75;102558.94;5027772;28;20506;-75
2023/05/30 00:14:40;;;;;;;16.80;4.40;;;;;;;9.84;79.11;102563.41;5029278;28;20025;-75
2023/05/30 00:17:05;;;;;;;20.23;3.95;;;;;;;9.83;79.50;102564.31;5026832;28;20041;-76
2023/05/30 00:19:31;;;;;;;15.48;3.85;;;;;;;9.81;79.74;102562.69;5028464;28;20030;-75
2023/05/30 00:21:57;;;;;;;21.20;4.97;;;;;;;9.78;79.91;102562.81;5028229;28;20029;-75
2023/05/30 00:24:24;;;;;;;16.98;4.20;;;;;;;9.73;80.50;102561.25;5020985;28;20034;-75
2023/05/30 00:26:50;;;;;;;20.50;5.20;;;;;;;9.76;80.73;102552.38;5027161;28;20030;-75
2023/05/30 00:29:15;;;;;;;22.75;4.80;;;;;;;9.71;80.74;102568.34;5029526;28;20021;-75
2023/05/30 00:31:40;;;;;;;16.15;4.93;;;;;;;9.69;80.93;102572.81;5026158;28;20108;-75
2023/05/30 00:34:06;;;;;;;22.15;4.03;;;;;;;9.63;81.64;102569.59;5027969;28;20022;-75
2023/05/30 00:36:31;;;;;;;17.50;4.38;;;;;;;9.62;81.85;102565.25;5028046;28;20124;-75
2023/05/30 00:38:57;;;;;;;21.95;4.93;;;;;;;9.55;82.10;102564.63;5023818;28;20049;-79
2023/05/30 00:41:25;;;;;;;15.90;4.07;;;;;;;9.57;82.40;102567.19;5008368;28;20096;-75
2023/05/30 00:43:50;;;;;;;17.50;4.20;;;;;;;9.50;83.00;102568.38;5029492;28;20017;-75
2023/05/30 00:46:16;;;;;;;16.52;4.30;;;;;;;9.45;83.58;102571.22;5026888;28;20025;-75
2023/05/30 00:48:46;;;;;;;21.00;4.03;;;;;;;9.36;83.81;102582.97;5010340;28;20048;-75
2023/05/30 00:51:12;;;;;;;18.92;4.53;;;;;;;9.32;84.31;102589.25;5026105;28;20029;-75
2023/05/30 00:53:41;;;;;;;30.45;4.90;;;;;;;9.32;84.71;102589.25;5027794;28;20033;-75
2023/05/30 00:56:07;;;;;;;17.00;4.22;;;;;;;9.25;84.90;102584.31;5024574;28;20018;-75
2023/05/30 00:58:35;;;;;;;16.95;4.13;;;;;;;9.27;85.47;102579.84;5005620;28;20026;-75
2023/05/30 01:01:02;;;;;;;21.88;4.93;;;;;;;9.26;85.78;102594.75;5024771;28;20116;-75
2023/05/30 01:03:33;;;;;;;17.67;4.68;;;;;;;9.19;86.06;102589.78;5010986;28;20030;-75
2023/05/30 01:06:01;;;;;;;20.58;5.10;;;;;;;9.17;86.36;102592.47;5028108;28;20450;-75
2023/05/30 01:08:27;;;;;;;14.60;4.10;;;;;;;9.13;86.89;102588.28;5026707;28;20057;-75
2023/05/30 01:10:59;;;;;;;19.98;4.40;;;;;;;9.12;86.47;102589.19;5026241;28;20037;-75
2023/05/30 01:13:40;;;;;;;18.30;4.50;;;;;;;9.19;86.47;102582.75;5025874;28;20033;-75
2023/05/30 01:16:15;;;;;;;27.73;4.50;;;;;;;9.15;86.49;102583.81;5025574;28;20268;-75
2023/05/30 01:18:47;;;;;;;16.77;4.18;;;;;;;9.09;87.21;102589.31;5026717;28;20100;-75
2023/05/30 01:21:15;;;;;;;18.52;4.47;;;;;;;9.11;87.08;102588.34;5030618;28;20057;-75
2023/05/30 01:23:52;;;;;;;21.38;5.40;;;;;;;9.10;87.22;102577.91;5031874;28;20026;-75
2023/05/30 01:26:30;;;;;;;18.38;4.53;;;;;;;9.10;87.38;102583.16;5020930;28;20974;-75
2023/05/30 01:28:59;;;;;;;19.50;5.05;;;;;;;9.00;87.70;102584.44;5012298;28;20497;-75
2023/05/30 01:31:25;;;;;;;23.75;5.15;;;;;;;8.97;88.24;102576.69;5011224;28;20037;-75
2023/05/30 01:33:53;;;;;;;20.63;4.85;;;;;;;8.90;88.49;102583.94;5031687;28;20028;-75
2023/05/30 01:36:19;;;;;;;21.30;4.75;;;;;;;8.86;88.98;102586.75;5029385;28;20091;-75
2023/05/30 01:38:45;;;;;;;21.75;4.88;;;;;;;8.85;89.11;102579.78;5013967;28;20375;-75
2023/05/30 01:42:01;;;;;;;19.55;4.78;;;;;;;8.91;88.14;102590.91;5013402;28;20036;-75
2023/05/30 01:44:32;;;;;;;22.98;4.53;;;;;;;8.87;89.17;102588.47;4997337;28;20041;-75
2023/05/30 01:47:14;;;;;;;22.85;5.13;;;;;;;8.87;89.14;102588.47;5029270;28;20029;-75
2023/05/30 01:49:50;;;;;;;18.17;5.10;;;;;;;8.84;89.31;102596.47;5029085;28;20064;-75
2023/05/30 01:52:20;;;;;;;21.83;4.82;;;;;;;8.79;89.29;102592.22;5013100;28;20032;-75
2023/05/30 01:54:52;;;;;;;19.20;4.68;;;;;;;8.77;89.81;102599.28;5031149;28;20029;-75
2023/05/30 01:57:18;;;;;;;19.67;5.03;;;;;;;8.80;89.81;102600.94;5029473;28;20075;-75
2023/05/30 01:59:45;;;;;;;19.88;4.78;;;;;;;8.78;90.15;102601.00;5030274;28;20079;-75
2023/05/30 02:02:10;;;;;;;18.38;4.82;;;;;;;8.81;90.13;102601.81;5026628;28;20033;-75
2023/05/30 02:04:36;;;;;;;16.95;4.50;;;;;;;8.68;90.21;102604.91;5027237;28;20089;-75
2023/05/30 02:07:03;;;;;;;21.88;5.30;;;;;;;8.73;90.41;102608.19;5023869;28;20066;-75
2023/05/30 02:09:28;;;;;;;21.23;5.38;;;;;;;8.76;90.22;102608.06;5031375;28;20037;-75
2023/05/30 02:11:54;;;;;;;25.65;6.13;;;;;;;8.65;90.86;102615.50;5030291;28;20034;-75
2023/05/30 02:14:19;;;;;;;14.75;4.45;;;;;;;8.61;91.11;102616.53;5030794;28;20039;-75
2023/05/30 02:16:45;;;;;;;20.58;5.63;;;;;;;8.60;91.27;102613.97;5031273;28;20492;-75
2023/05/30 02:19:12;;;;;;;18.33;4.75;;;;;;;8.63;90.87;102612.09;5031130;28;20528;-75
2023/05/30 02:21:38;;;;;;;22.33;5.82;;;;;;;8.57;91.40;102614.09;5029537;28;20490;-75
2023/05/30 02:24:04;;;;;;;21.17;5.20;;;;;;;8.58;91.18;102614.03;5026178;28;20061;-75
2023/05/30 02:26:34;;;;;;;23.38;5.90;;;;;;;8.56;92.05;102613.25;5019868;28;20057;-75
2023/05/30 02:29:00;;;;;;;25.42;5.72;;;;;;;8.57;91.47;102614.94;5004103;28;20021;-75
2023/05/30 02:31:25;;;;;;;18.35;4.93;;;;;;;8.51;91.91;102609.94;5029985;28;20087;-75
2023/05/30 02:33:50;;;;;;;17.48;4.80;;;;;;;8.54;92.02;102612.44;5026155;28;20022;-75
2023/05/30 02:36:16;;;;;;;17.10;4.93;;;;;;;8.53;92.05;102610.72;5030931;28;20359;-75
2023/05/30 02:38:41;;;;;;;23.30;5.20;;;;;;;8.42;92.60;102607.66;5029871;28;20379;-75
2023/05/30 02:41:07;;;;;;;24.40;5.60;;;;;;;8.39;92.63;102600.72;5029706;28;20048;-75
2023/05/30 02:43:33;;;;;;;24.08;5.75;;;;;;;8.38;93.18;102611.28;5030097;28;20047;-75
2023/05/30 02:46:01;;;;;;;25.35;5.30;;;;;;;8.34;93.25;102607.06;5027545;28;20021;-75
2023/05/30 02:48:27;;;;;;;24.02;5.43;;;;;;;8.33;93.56;102607.94;5011942;28;20481;-75
2023/05/30 02:50:52;;;;;;;19.08;5.38;;;;;;;8.33;93.37;102602.69;5018589;28;20064;-75
2023/05/30 02:53:18;;;;;;;26.70;5.97;;;;;;;8.30;93.55;102598.41;5007969;28;20399;-75
2023/05/30 02:55:44;;;;;;;16.48;5.32;;;;;;;8.26;93.97;102596.81;5010648;28;20022;-75
2023/05/30 02:58:13;;;;;;;21.95;5.50;;;;;;;8.31;93.79;102604.50;4992133;28;20474;-75
2023/05/30 03:00:40;;;;;;;21.80;5.90;;;;;;;8.20;94.40;102596.19;4996355;28;20017;-75
2023/05/30 03:03:10;;;;;;;21.90;5.55;;;;;;;8.22;94.78;102595.22;5011478;28;20064;-75
2023/05/30 03:05:36;;;;;;;25.08;5.45;;;;;;;8.18;95.01;102594.47;5027612;28;20094;-75
2023/05/30 03:08:02;;;;;;;22.63;6.15;;;;;;;8.14;94.61;102597.25;5000781;28;20125;-75
2023/05/30 03:10:28;;;;;;;25.08;5.78;;;;;;;8.20;94.88;102596.19;4992832;28;20053;-75
2023/05/30 03:12:55;;;;;;;21.65;5.75;;;;;;;8.20;94.82;102601.44;4991753;28;20478;-75
2023/05/30 03:15:21;;;;;;;25.77;6.40;;;;;;;8.13;95.46;102606.03;5009840;28;20029;-75
2023/05/30 03:17:47;;;;;;;20.02;5.53;;;;;;;8.14;95.28;102608.59;5008787;28;20030;-75
2023/05/30 03:20:13;;;;;;;22.15;5.45;;;;;;;8.09;95.67;102604.44;5007698;28;20022;-75
2023/05/30 03:22:39;;;;;;;24.08;6.00;;;;;;;8.11;95.50;102618.34;5009963;28;20041;-75
2023/05/30 03:25:05;;;;;;;26.25;5.63;;;;;;;8.12;95.79;102623.53;5011499;28;20033;-75
2023/05/30 03:27:31;;;;;;;26.60;6.70;;;;;;;8.11;95.97;102618.34;5010378;28;20040;-75
2023/05/30 03:29:56;;;;;;;18.98;5.40;;;;;;;8.15;96.05;102612.94;5027707;28;20458;-75
2023/05/30 03:32:22;;;;;;;26.17;6.68;;;;;;;8.22;95.81;102615.34;5029740;28;20052;-75
2023/05/30 03:34:47;;;;;;;16.92;5.40;;;;;;;8.22;95.84;102612.72;5028790;28;20041;-76
2023/05/30 03:37:13;;;;;;;22.60;5.65;;;;;;;8.30;95.60;102622.00;5027186;28;20025;-74
2023/05/30 03:39:40;;;;;;;19.85;5.80;;;;;;;8.31;95.46;102625.50;5010918;28;20037;-75
2023/05/30 03:42:06;;;;;;;28.65;6.47;;;;;;;8.37;95.23;102625.28;5026329;28;20090;-75
2023/05/30 03:44:31;;;;;;;27.25;6.05;;;;;;;8.37;95.23;102635.78;5007413;28;20021;-75
2023/05/30 03:46:58;;;;;;;32.38;6.50;;;;;;;8.42;95.39;102636.50;5029304;28;20025;-75
2023/05/30 03:49:33;;;;;;;21.95;5.28;;;;;;;8.43;95.29;102646.09;5010180;28;20025;-76
2023/05/30 03:51:58;;;;;;;19.45;5.38;;;;;;;8.44;95.22;102642.56;5027446;28;20025;-76
2023/05/30 03:54:26;;;;;;;25.38;6.43;;;;;;;8.51;94.67;102644.03;5028435;28;20102;-75
2023/05/30 03:56:52;;;;;;;22.73;6.22;;;;;;;8.55;94.87;102650.03;5025310;28;20119;-76
2023/05/30 03:59:19;;;;;;;25.73;6.15;;;;;;;8.56;94.51;102642.09;5029033;28;20017;-75
2023/05/30 04:01:45;;;;;;;21.63;5.72;;;;;;;8.57;94.19;102651.69;5010332;28;20033;-75
2023/05/30 04:04:11;;;;;;;30.20;6.38;;;;;;;8.57;94.26;102648.19;4990670;28;20021;-75
2023/05/30 04:06:38;;;;;;;21.38;6.05;;;;;;;8.57;94.60;102654.31;5007860;28;20113;-74
2023/05/30 04:09:05;;;;;;;22.27;5.90;;;;;;;8.61;94.42;102644.53;5027357;28;20025;-74
2023/05/30 04:11:31;;;;;;;16.60;5.35;;;;;;;8.68;94.28;102652.13;5028024;28;20032;-74
2023/05/30 04:13:59;;;;;;;21.08;5.85;;;;;;;8.71;93.97;102654.63;5029124;28;20033;-74
2023/05/30 04:16:25;;;;;;;24.10;6.97;;;;;;;8.73;93.96;102651.97;5024476;28;20013;-74
2023/05/30 04:18:51;;;;;;;19.85;5.68;;;;;;;8.81;93.94;102656.94;5026717;28;20386;-74
2023/05/30 04:21:17;;;;;;;27.50;5.97;;;;;;;8.81;94.11;102646.44;5027726;28;20025;-75
2023/05/30 04:23:42;;;;;;;22.33;6.35;;;;;;;8.84;94.13;102651.56;5008019;28;20029;-74
2023/05/30 04:26:09;;;;;;;18.42;5.70;;;;;;;8.93;93.58;102646.81;5024286;28;20022;-75
2023/05/30 04:28:42;;;;;;;21.45;6.10;;;;;;;8.94;93.43;102652.94;5025309;28;20029;-75
2023/05/30 04:31:08;;;;;;;22.50;5.68;;;;;;;9.04;93.26;102643.78;5019050;28;20037;-75
2023/05/30 04:33:35;;;;;;;28.13;6.47;;;;;;;9.09;93.29;102649.72;5027181;28;20017;-75
2023/05/30 04:36:05;;;;;;;19.55;6.38;;;;;;;9.08;92.90;102646.22;5022984;28;20026;-75
2023/05/30 04:38:32;;;;;;;23.77;6.15;;;;;;;9.10;93.24;102651.41;5029009;28;20033;-76
2023/05/30 04:41:00;;;;;;;26.15;6.45;;;;;;;9.14;92.80;102655.63;5029565;28;20025;-76
2023/05/30 04:43:26;;;;;;;19.73;6.15;;;;;;;9.19;92.78;102653.69;5027919;28;20750;-76
2023/05/30 04:45:51;;;;;;;21.35;6.00;;;;;;;9.20;92.22;102650.13;5011360;28;20025;-76
2023/05/30 04:48:17;;;;;;;24.30;6.07;;;;;;;9.29;91.79;102649.78;5029411;28;20470;-76
2023/05/30 04:50:46;;;;;;;25.52;6.50;;;;;;;9.32;90.93;102654.94;5018468;28;20088;-76
2023/05/30 04:53:13;;;;;;;21.25;6.10;;;;;;;9.39;90.85;102656.38;5020214;28;20156;-76
2023/05/30 04:55:39;;;;;;;20.23;6.32;;;;;;;9.43;91.15;102644.84;5031120;28;20669;-76
2023/05/30 04:58:05;;;;;;;24.02;6.55;;;;;;;9.47;91.20;102647.34;5014482;28;20037;-76
2023/05/30 05:00:30;;;;;;;23.55;6.30;;;;;;;9.52;90.60;102645.38;5029617;28;20370;-75
2023/05/30 05:02:55;;;;;;;29.48;9.45;;;;;;;9.53;90.86;102652.34;5031757;28;20052;-73
2023/05/30 05:05:21;;;;;;;24.77;6.55;;;;;;;9.60;90.69;102651.16;5029132;28;20063;-74
2023/05/30 05:07:46;;;;;;;19.80;6.22;;;;;;;9.66;90.36;102646.53;5027539;28;20091;-76
2023/05/30 05:10:12;;;;;;;21.38;6.25;;;;;;;9.68;89.83;102641.22;5017350;28;20034;-73
2023/05/30 05:12:37;;;;;;;20.55;6.40;;;;;;;9.74;89.61;102652.34;5012220;28;20532;-76
2023/05/30 05:15:03;;;;;;;20.60;6.22;;;;;;;9.73;89.66;102648.00;5016067;28;20393;-76
2023/05/30 05:17:28;;;;;;;26.98;6.63;;;;;;;9.84;89.53;102644.91;5025048;28;20029;-74
2023/05/30 05:19:53;;;;;;;21.45;5.75;;;;;;;9.82;89.08;102638.84;5030290;28;20444;-75
2023/05/30 05:22:21;;;;;;;21.25;6.47;;;;;;;9.86;88.91;102635.19;5014567;28;20519;-75
2023/05/30 05:24:47;;;;;;;21.83;6.00;;;;;;;9.88;88.60;102643.84;5029428;28;20017;-75
2023/05/30 05:27:13;;;;;;;19.05;6.22;;;;;;;9.88;87.90;102646.47;5024516;28;20033;-75
2023/05/30 05:29:39;;;;;;;23.27;5.57;;;;;;;9.95;88.43;102644.44;5022877;28;20112;-74
2023/05/30 05:32:04;;;;;;;19.33;6.35;;;;;;;10.01;88.21;102645.06;5031073;28;20060;-75
2023/05/30 05:34:30;;;;;;;22.70;6.13;;;;;;;10.09;87.67;102649.13;5029371;28;20029;-75
2023/05/30 05:36:55;;;;;;;19.10;5.50;;;;;;;10.08;87.12;102644.81;5030938;28;20044;-75
2023/05/30 05:39:20;;;;;;;21.52;7.05;;;;;;;10.09;86.86;102641.25;5013164;28;20034;-75
2023/05/30 05:41:46;;;;;;;19.15;6.22;;;;;;;10.21;87.11;102643.38;5030711;28;20036;-75
2023/05/30 05:44:11;;;;;;;18.02;5.95;;;;;;;10.17;86.43;102636.50;5011560;28;20062;-75
2023/05/30 05:46:36;;;;;;;19.40;5.70;;;;;;;10.26;86.48;102636.97;5031229;28;20026;-75
2023/05/30 05:49:02;;;;;;;18.80;6.47;;;;;;;10.32;85.35;102647.22;5028243;28;20104;-75
2023/05/30 05:51:31;;;;;;;18.38;5.47;;;;;;;10.34;85.67;102642.75;5013929;28;20013;-75
2023/05/30 05:53:57;;;;;;;21.40;6.45;;;;;;;10.46;85.91;102640.53;5032273;28;20359;-75
2023/05/30 05:56:22;;;;;;;16.48;5.90;;;;;;;10.49;85.58;102650.91;5031280;28;20024;-75
2023/05/30 05:58:52;;;;;;;19.77;5.95;;;;;;;10.51;84.39;102652.53;5032185;28;20500;-75
2023/05/30 06:01:17;;;;;;;18.30;6.45;;;;;;;10.51;83.78;102652.53;5029744;28;20026;-75
2023/05/30 06:03:43;;;;;;;21.83;6.28;;;;;;;10.53;84.03;102648.06;5021098;28;20104;-75
2023/05/30 06:06:08;;;;;;;25.38;6.22;;;;;;;10.50;84.49;102658.75;5014004;28;20076;-75
2023/05/30 06:08:36;;;;;;;24.27;6.55;;;;;;;10.53;84.57;102657.75;5028722;28;20037;-75
2023/05/30 06:11:01;;;;;;;20.02;6.75;;;;;;;10.60;84.20;102652.13;5029150;28;20446;-75
2023/05/30 06:13:26;;;;;;;16.90;6.15;;;;;;;10.60;83.54;102659.16;5030009;28;20049;-75
2023/05/30 06:15:52;;;;;;;23.65;7.53;;;;;;;10.58;83.39;102661.88;5010692;28;20031;-75
2023/05/30 06:18:18;;;;;;;16.60;6.68;;;;;;;10.55;83.10;102659.38;5029496;28;20096;-75
2023/05/30 06:20:43;;;;;;;30.45;7.38;;;;;;;10.60;83.66;102654.75;5030798;28;20025;-75
2023/05/30 06:23:08;;;;;;;16.90;6.40;;;;;;;10.63;83.39;102649.34;5028096;28;20554;-75
2023/05/30 06:25:34;;;;;;;24.40;7.47;;;;;;;10.70;83.34;102657.81;5011427;28;20032;-75
2023/05/30 06:28:00;;;;;;;16.25;6.30;;;;;;;10.71;81.65;102656.03;5028572;28;20490;-75
2023/05/30 06:30:25;;;;;;;19.38;6.68;;;;;;;10.65;81.70;102663.31;5029979;28;20056;-75
2023/05/30 06:32:50;;;;;;;18.27;6.63;;;;;;;10.72;81.98;102663.03;5011915;28;20021;-75
2023/05/30 06:35:16;;;;;;;17.65;6.43;;;;;;;10.83;81.53;102666.03;5027726;28;20076;-75
2023/05/30 06:37:41;;;;;;;18.83;6.50;;;;;;;10.94;81.96;102658.50;5011953;28;20064;-75
2023/05/30 06:40:07;;;;;;;21.52;5.85;;;;;;;10.99;80.76;102659.97;5024005;28;20132;-77
2023/05/30 06:42:34;;;;;;;18.13;6.20;;;;;;;11.09;80.46;102659.53;5008747;28;20121;-77
2023/05/30 06:45:00;;;;;;;19.50;6.68;;;;;;;11.09;80.01;102657.75;5021924;28;20034;-77
2023/05/30 06:47:25;;;;;;;20.50;6.30;;;;;;;11.18;80.89;102657.31;5030332;28;20043;-75
2023/05/30 06:49:50;;;;;;;14.82;6.03;;;;;;;11.30;79.27;102656.75;5029007;28;20029;-75
2023/05/30 06:52:16;;;;;;;15.50;6.70;;;;;;;11.44;79.79;102649.97;5027201;28;20032;-75
2023/05/30 06:54:41;;;;;;;23.30;6.88;;;;;;;11.61;79.66;102661.41;5028952;28;20041;-75
2023/05/30 06:57:07;;;;;;;14.75;6.30;;;;;;;11.70;78.56;102660.09;5028549;28;20032;-75
2023/05/30 06:59:33;;;;;;;16.50;6.30;;;;;;;11.84;77.97;102667.34;5028815;28;20021;-75
2023/05/30 07:02:02;;;;;;;20.08;7.68;;;;;;;11.91;77.38;102674.84;5028641;28;20474;-75
2023/05/30 07:04:27;;;;;;;18.27;6.85;;;;;;;11.91;75.92;102663.44;5013361;28;20121;-74
2023/05/30 07:06:53;;;;;;;14.73;6.30;;;;;;;11.88;76.00;102675.00;5008008;28;20126;-74
2023/05/30 07:09:18;;;;;;;15.55;5.80;;;;;;;11.93;75.54;102667.72;5010203;28;20084;-75
2023/05/30 07:11:44;;;;;;;17.02;5.95;;;;;;;12.08;74.49;102675.81;5025837;28;20060;-75
2023/05/30 07:14:11;;;;;;;16.05;5.88;;;;;;;12.39;74.09;102670.63;5028986;28;20052;-75
2023/05/30 07:16:37;;;;;;;18.38;6.15;;;;;;;12.73;73.83;102674.13;5027144;28;20037;-75
2023/05/30 07:19:02;;;;;;;16.67;6.10;;;;;;;12.79;72.29;102673.78;5014949;28;20038;-74
2023/05/30 07:21:28;;;;;;;12.52;5.75;;;;;;;12.93;71.30;102676.56;5010003;28;20038;-75
2023/05/30 07:23:55;;;;;;;20.60;6.72;;;;;;;12.78;69.88;102677.38;5008670;28;20548;-74
2023/05/30 07:26:21;;;;;;;16.77;6.55;;;;;;;12.65;70.43;102676.34;5016677;28;20087;-74
2023/05/30 07:28:46;;;;;;;17.05;6.20;;;;;;;12.52;70.95;102666.44;5009458;28;20026;-74
2023/05/30 07:31:12;;;;;;;16.05;6.13;;;;;;;12.40;71.68;102667.06;5025480;28;20022;-74
2023/05/30 07:33:37;;;;;;;15.90;6.15;;;;;;;12.31;71.92;102678.09;5029925;28;20033;-74
2023/05/30 07:36:02;;;;;;;13.90;6.15;;;;;;;12.31;72.19;102686.00;5029825;28;20128;-74
2023/05/30 07:38:28;;;;;;;16.90;6.65;;;;;;;12.29;72.14;102687.03;5030392;28;20048;-74
2023/05/30 07:40:54;;;;;;;14.15;6.13;;;;;;;12.45;72.53;102690.59;5028528;28;20048;-73
2023/05/30 07:43:19;;;;;;;18.65;6.47;;;;;;;12.80;70.19;102686.91;5029768;28;20371;-74
2023/05/30 07:45:45;;;;;;;13.95;6.07;;;;;;;13.32;69.56;102685.91;5029997;28;20021;-74
2023/05/30 07:48:10;;;;;;;15.60;5.95;;;;;;;13.69;68.24;102685.50;5027326;28;20025;-74
2023/05/30 07:50:35;;;;;;;14.05;5.90;;;;;;;13.86;66.51;102676.59;5025282;28;20061;-74
2023/05/30 07:53:01;;;;;;;15.32;5.55;;;;;;;14.11;65.47;102683.94;5029724;28;20040;-75
2023/05/30 07:55:27;;;;;;;18.70;5.78;;;;;;;14.51;65.45;102670.97;5022538;28;20441;-75
2023/05/30 07:57:53;;;;;;;17.10;6.00;;;;;;;14.72;64.39;102669.63;5029671;28;20091;-74
2023/05/30 08:00:18;;;;;;;14.60;6.28;;;;;;;14.49;63.59;102657.84;5029252;28;20025;-75
2023/05/30 08:02:47;;;;;;;12.85;5.57;;;;;;;14.29;64.59;102668.75;5010678;28;20457;-75
2023/05/30 08:05:12;;;;;;;16.17;6.35;;;;;;;14.07;65.56;102661.25;5026896;28;20133;-75
2023/05/30 08:07:38;;;;;;;13.50;6.15;;;;;;;14.01;65.41;102672.22;5029168;28;20474;-75
2023/05/30 08:10:03;;;;;;;15.50;5.60;;;;;;;14.00;65.92;102670.47;5007677;28;20556;-75
2023/05/30 08:12:29;;;;;;;11.38;5.80;;;;;;;13.78;65.24;102677.03;5025708;28;20025;-75
2023/05/30 08:14:56;;;;;;;13.18;6.22;;;;;;;13.62;65.60;102673.59;5005020;28;20034;-75
2023/05/30 08:17:23;;;;;;;13.65;6.18;;;;;;;13.78;66.02;102676.19;5026358;28;20037;-75
2023/05/30 08:19:52;;;;;;;14.63;6.10;;;;;;;14.25;64.43;102667.22;5025402;28;20017;-75
2023/05/30 08:22:22;;;;;;;14.40;5.80;;;;;;;14.74;61.92;102662.44;5009165;28;20501;-75
2023/05/30 08:24:53;;;;;;;17.10;6.03;;;;;;;14.94;60.88;102672.66;5011194;28;20024;-75
2023/05/30 08:27:19;;;;;;;11.45;5.57;;;;;;;15.12;60.92;102661.81;5010868;28;20017;-74
2023/05/30 08:29:45;;;;;;;12.70;5.53;;;;;;;15.29;59.53;102662.47;5026945;28;20040;-74
2023/05/30 08:32:10;;;;;;;13.23;5.47;;;;;;;15.71;59.75;102670.38;5010760;28;20394;-74
2023/05/30 08:34:36;;;;;;;12.57;5.80;;;;;;;15.90;58.04;102666.38;5013705;28;20033;-74
2023/05/30 08:37:02;;;;;;;17.58;5.70;;;;;;;16.12;56.53;102649.84;5037766;28;20381;-75
2023/05/30 08:39:27;;;;;;;15.55;5.90;;;;;;;16.28;56.54;102652.28;5040950;28;20032;-74
2023/05/30 08:41:53;;;;;;;11.55;5.20;;;;;;;16.36;55.54;102651.75;5024463;28;20017;-74
2023/05/30 08:44:19;;;;;;;13.85;5.38;;;;;;;16.41;55.13;102641.66;5042711;28;20036;-74
2023/05/30 08:46:45;;;;;;;13.52;5.82;;;;;;;16.33;55.13;102641.34;5040502;28;20021;-74
2023/05/30 08:49:18;;;;;;;16.08;5.40;;;;;;;16.62;55.67;102653.44;5042886;28;20033;-74
2023/05/30 08:51:43;;;;;;;;;;;;;;;17.16;56.37;102642.50;5020664;28;20017;-74
2023/05/30 08:54:16;;;;;;;16.42;5.97;;;;;;;16.97;53.72;102637.66;5024545;28;19909;-74
2023/05/30 08:56:47;;;;;;;13.30;5.53;;;;;;;17.33;53.82;102638.59;5040552;28;20037;-74
2023/05/30 08:59:15;;;;;;;14.45;5.75;;;;;;;17.52;53.04;102639.78;5032631;28;20454;-74
2023/05/30 09:01:41;;;;;;;15.25;5.68;;;;;;;17.71;52.04;102638.44;5027704;28;20029;-74
2023/05/30 09:04:09;;;;;;;13.25;5.90;;;;;;;17.58;50.95;102641.13;5026544;28;20036;-75
2023/05/30 09:06:39;;;;;;;11.77;5.55;;;;;;;17.51;51.84;102638.06;5013260;28;20112;-75
2023/05/30 09:09:09;;;;;;;15.50;6.38;;;;;;;17.85;51.43;102628.44;5020295;28;20032;-76
2023/05/30 09:11:40;;;;;;;13.32;5.20;;;;;;;17.88;51.00;102635.31;5014240;28;20032;-75
2023/05/30 09:14:08;;;;;;;14.68;5.75;;;;;;;17.78;51.01;102621.88;5031057;28;20032;-75
2023/05/30 09:16:37;;;;;;;12.88;5.25;;;;;;;18.08;51.61;102626.69;5030149;28;20025;-75
2023/05/30 09:19:02;;;;;;;14.00;6.03;;;;;;;18.03;49.88;102620.84;5012323;28;20021;-75
2023/05/30 09:21:31;;;;;;;14.85;5.68;;;;;;;18.51;49.77;102627.78;5030982;28;20108;-75
2023/05/30 09:24:02;;;;;;;17.85;6.15;;;;;;;18.42;50.64;102613.38;5029192;28;20029;-75
2023/05/30 09:26:27;;;;;;;14.02;5.65;;;;;;;18.17;49.56;102620.63;5004311;28;21278;-75
2023/05/30 09:28:53;;;;;;;15.02;6.05;;;;;;;18.20;50.55;102618.69;5019917;28;20195;-75
2023/05/30 09:31:21;;;;;;;12.85;6.40;;;;;;;18.13;50.71;102616.50;5021576;28;20141;-75
2023/05/30 09:33:55;;;;;;;13.15;5.80;;;;;;;17.92;50.28;102618.16;5016246;28;20029;-75
2023/05/30 09:36:26;;;;;;;12.40;5.65;;;;;;;18.04;50.71;102625.22;5030678;28;20033;-75
2023/05/30 09:38:56;;;;;;;16.42;6.80;;;;;;;17.75;50.83;102615.94;5030255;28;20018;-75
2023/05/30 09:41:23;;;;;;;16.33;6.57;;;;;;;17.87;50.44;102608.81;5030960;28;20397;-74
2023/05/30 09:43:54;;;;;;;16.67;6.20;;;;;;;17.81;50.30;102607.47;5013691;28;20448;-77
2023/05/30 09:46:25;;;;;;;13.13;6.35;;;;;;;17.99;50.95;102606.06;5014070;28;20087;-74
2023/05/30 09:48:51;;;;;;;14.23;6.60;;;;;;;17.89;50.39;102609.53;5029401;28;20041;-73
2023/05/30 09:51:18;;;;;;;15.60;6.55;;;;;;;17.86;50.52;102615.97;5029402;28;20367;-74
2023/05/30 09:54:16;;;;;;;20.48;7.30;;;;;;;18.07;52.02;102603.66;5032168;28;20032;-75
2023/05/30 09:56:43;;;;;;;14.90;7.00;;;;;;;18.23;51.43;102605.13;4987188;28;20045;-75
2023/05/30 09:59:10;;;;;;;14.73;6.40;;;;;;;18.33;51.58;102600.75;5029113;28;21050;-75
2023/05/30 10:01:40;;;;;;;14.98;7.07;;;;;;;18.52;51.00;102593.00;5029247;28;20136;-75
2023/05/30 10:04:11;;;;;;;15.77;7.20;;;;;;;18.78;50.29;102597.13;5030185;28;20021;-75
2023/05/30 10:06:40;;;;;;;17.70;7.00;;;;;;;18.77;48.94;102598.09;5029161;28;20087;-76
2023/05/30 10:09:07;;;;;;;17.25;6.78;;;;;;;19.01;48.61;102597.06;5022448;28;20040;-76
2023/05/30 10:11:36;;;;;;;12.20;6.90;;;;;;;19.13;48.21;102593.41;5014736;28;20044;-76
2023/05/30 10:14:01;;;;;;;12.90;6.10;;;;;;;19.16;47.02;102587.81;5036645;28;20028;-75
2023/05/30 10:16:28;;;;;;;11.55;5.90;;;;;;;18.98;48.19;102586.66;5034766;28;20650;-77
2023/05/30 10:19:04;;;;;;;17.85;7.07;;;;;;;18.85;48.47;102588.66;5017493;28;20018;-77
2023/05/30 10:21:37;;;;;;;15.82;7.40;;;;;;;18.86;48.32;102579.66;5020377;28;20095;-77
2023/05/30 10:24:30;;;;;;;;;;;;;;;19.23;49.73;102594.34;5034385;28;20022;-77
2023/05/30 10:27:01;;;;;;;12.38;7.03;;;;;;;19.00;47.54;102587.38;5016533;28;19967;-77
2023/05/30 10:29:34;;;;;;;14.80;7.20;;;;;;;18.93;47.99;102596.88;5015571;28;20052;-77
2023/05/30 10:32:03;;;;;;;14.13;6.88;;;;;;;18.89;47.78;102595.41;5038127;28;20178;-78
2023/05/30 10:34:49;;;;;;;14.93;7.60;;;;;;;19.06;47.77;102586.88;5043157;28;20711;-78
2023/05/30 10:37:15;;;;;;;17.65;6.93;;;;;;;18.95;47.43;102576.25;5036685;28;20147;-77
2023/05/30 10:40:09;;;;;;;19.05;7.13;;;;;;;19.22;48.18;102583.81;5013974;28;20022;-77
2023/05/30 10:42:49;;;;;;;18.73;7.70;;;;;;;19.44;47.17;102575.69;5029733;28;20052;-76
2023/05/30 10:45:18;;;;;;;12.48;7.63;;;;;;;19.45;45.94;102580.03;5028776;28;20044;-76
2023/05/30 10:48:06;;;;;;;17.42;7.13;;;;;;;19.47;47.09;102572.75;5030754;28;20032;-76
2023/05/30 10:50:39;;;;;;;17.73;7.90;;;;;;;19.60;46.10;102572.59;5008938;28;20029;-77
2023/05/30 10:53:14;;;;;;;13.85;6.90;;;;;;;19.57;46.30;102570.19;5011805;28;20029;-76
2023/05/30 10:55:41;;;;;;;15.50;6.72;;;;;;;19.75;47.06;102565.13;5029669;28;20028;-76
2023/05/30 10:58:42;;;;;;;13.45;6.50;;;;;;;20.26;46.91;102551.72;5027204;28;20033;-77
2023/05/30 11:01:26;;;;;;;13.70;6.22;;;;;;;20.29;46.49;102559.47;5028416;28;20017;-77
2023/05/30 11:03:57;;;;;;;16.77;7.10;;;;;;;19.87;45.32;102554.22;5006031;28;20501;-76
2023/05/30 11:06:25;;;;;;;17.20;6.50;;;;;;;20.00;45.63;102546.81;5022726;28;20280;-76
2023/05/30 11:08:52;;;;;;;13.18;6.47;;;;;;;20.14;46.23;102542.97;5012377;28;20370;-76
2023/05/30 11:11:19;;;;;;;12.65;6.10;;;;;;;20.46;46.09;102550.84;5027560;28;20033;-76
2023/05/30 11:13:46;;;;;;;16.23;6.97;;;;;;;20.32;44.21;102537.81;5011998;28;20105;-76
2023/05/30 11:16:24;;;;;;;10.88;5.93;;;;;;;20.55;45.48;102547.34;5029351;28;20025;-76
2023/05/30 11:18:52;;;;;;;12.82;6.35;;;;;;;20.58;44.80;102541.72;5010322;28;20025;-76
2023/05/30 11:21:55;;;;;;;14.85;6.45;;;;;;;20.64;44.98;102548.34;5009926;28;20017;-76
2023/05/30 11:24:21;;;;;;;14.63;6.00;;;;;;;20.80;44.02;102540.63;5029345;28;20025;-76